Terminal Aerodrome Forecast
Issued by NWS Wilmington, NC

Home | Current Version | Previous Version | Text Only | Print | Product List | Glossary On
Versions: 1 2 3 4 5 6 7 8 9 10 11 12 13 14 15 16 17 18 19 20 21 22 23 24 25
000
FTUS42 KILM 240524
TAFILM
TAF
KILM 240524Z 2406/2506 19003KT P6SM SCT005
     FM240700 19002KT 2SM BR BKN005
     FM240900 19002KT 1/2SM FG BKN003
     FM241400 22006KT P6SM BKN015
     FM241600 22009KT P6SM SCT035
     FM242200 20010KT P6SM SCT250=

USA.gov is the U.S. government's official web portal to all federal, state and local government web resources and services.